Time;durP1;ratioP1;P1;durP2;ratioP2;P2;SDS_P1;SDS_P2;PMS_P1;PMS_P2;Temp;Humidity;BMP_temperature;BMP_pressure;BME280_temperature;BME280_humidity;BME280_pressure;Samples;Min_cycle;Max_cycle;Signal;HPM_P1;HPM_P2
2021/12/21 00:01:02;;;;;;;27.42;17.95;;;;;;;15.67;40.43;93870.47;5010540;28;20483;-87
2021/12/21 00:03:27;;;;;;;31.40;19.00;;;;;;;15.67;40.14;93867.75;5010814;28;20049;-85
2021/12/21 00:05:54;;;;;;;31.85;19.27;;;;;;;15.66;39.78;93874.44;4994333;28;20447;-86
2021/12/21 00:08:19;;;;;;;26.80;16.15;;;;;;;15.66;40.22;93862.78;4994356;28;20030;-86
2021/12/21 00:10:47;;;;;;;27.95;15.73;;;;;;;15.62;40.11;93854.06;4978897;28;20048;-85
2021/12/21 00:13:35;;;;;;;25.25;16.23;;;;;;;15.66;40.02;93862.78;4964760;28;20050;-85
2021/12/21 00:21:06;;;;;;;25.20;15.77;;;;;;;15.64;40.11;93868.72;4971834;28;20151;-87
2021/12/21 00:23:41;;;;;;;25.80;16.58;;;;;;;15.64;40.18;93860.53;4977418;28;20037;-85
2021/12/21 00:26:09;;;;;;;31.80;18.17;;;;;;;15.62;40.29;93865.72;4972728;28;20038;-85
2021/12/21 00:31:19;;;;;;;32.53;17.85;;;;;;;15.58;40.02;93864.47;4991986;28;20037;-85
2021/12/21 00:33:46;;;;;;;26.30;15.63;;;;;;;15.62;40.30;93868.44;4972269;28;20042;-85
2021/12/21 00:36:13;;;;;;;29.63;18.90;;;;;;;15.61;39.87;93866.19;4974778;28;20440;-86
2021/12/21 00:38:38;;;;;;;28.58;15.43;;;;;;;15.59;39.95;93863.97;4975022;28;20087;-88
2021/12/21 00:41:04;;;;;;;26.70;17.05;;;;;;;15.61;40.13;93863.47;4974160;28;20038;-85
2021/12/21 00:43:29;;;;;;;25.95;15.90;;;;;;;15.65;40.11;93859.31;4949699;28;20492;-91
2021/12/21 00:45:56;;;;;;;31.67;17.60;;;;;;;15.62;40.08;93862.25;4958696;28;20053;-90
2021/12/21 00:48:27;;;;;;;28.45;14.65;;;;;;;15.62;40.15;93863.00;4957973;28;20041;-85
2021/12/21 00:50:52;;;;;;;27.20;15.43;;;;;;;15.65;40.19;93861.28;4960318;28;20045;-87
2021/12/21 00:53:18;;;;;;;20.00;14.35;;;;;;;15.63;40.04;93861.03;4974387;28;20038;-85
2021/12/21 00:55:43;;;;;;;27.45;18.13;;;;;;;15.61;40.20;93856.06;4974420;28;20515;-85
2021/12/21 00:58:08;;;;;;;28.20;15.73;;;;;;;15.65;39.95;93864.75;4958435;28;20049;-85
2021/12/21 01:00:34;;;;;;;28.25;16.42;;;;;;;15.68;39.99;93860.31;4976974;28;20034;-85
2021/12/21 01:03:05;;;;;;;29.65;14.48;;;;;;;15.64;40.13;93862.50;4974502;28;20045;-85
2021/12/21 01:05:39;;;;;;;30.67;18.17;;;;;;;15.64;40.25;93857.81;4977909;28;20034;-85
2021/12/21 01:08:07;;;;;;;22.63;14.18;;;;;;;15.60;40.34;93862.72;4995169;28;20582;-84
2021/12/21 01:10:50;;;;;;;29.33;16.40;;;;;;;15.63;40.39;93861.03;4961481;28;20093;-85
2021/12/21 01:13:33;;;;;;;31.60;20.92;;;;;;;15.59;40.31;93865.97;4971577;28;20503;-85
2021/12/21 01:18:36;;;;;;;21.63;13.23;;;;;;;15.62;40.44;93860.28;4972351;28;20507;-85
2021/12/21 01:21:07;;;;;;;23.42;15.07;;;;;;;15.65;40.00;93856.59;4991105;28;20037;-91
2021/12/21 01:26:12;;;;;;;24.52;14.93;;;;;;;15.64;40.00;93857.06;4995093;28;19945;-85
2021/12/21 01:28:46;;;;;;;19.17;12.32;;;;;;;15.62;40.14;93851.34;4979570;28;20052;-85
2021/12/21 01:31:41;;;;;;;19.73;12.60;;;;;;;15.63;39.84;93847.41;5005062;28;20426;-85
2021/12/21 01:34:21;;;;;;;25.70;14.73;;;;;;;15.62;40.13;93856.78;5011457;28;20523;-85
2021/12/21 01:36:58;;;;;;;24.08;14.70;;;;;;;15.59;40.17;93850.31;4976923;28;20055;-88
2021/12/21 01:51:58;;;;;;;18.45;11.63;;;;;;;15.57;40.18;93831.00;4958645;28;20038;-85
2021/12/21 01:54:24;;;;;;;21.23;13.98;;;;;;;15.60;39.95;93823.81;4961053;28;20692;-85
2021/12/21 01:56:49;;;;;;;21.27;12.95;;;;;;;15.56;40.06;93834.97;4977567;28;20034;-86
2021/12/21 01:59:14;;;;;;;23.80;15.02;;;;;;;15.60;40.07;93840.19;4993281;28;20038;-86
2021/12/21 02:01:41;;;;;;;25.67;15.70;;;;;;;15.53;39.91;93833.16;4992455;28;20060;-90
2021/12/21 02:04:08;;;;;;;25.13;15.85;;;;;;;15.55;40.44;93827.25;4977599;28;20133;-85
2021/12/21 02:06:34;;;;;;;20.88;12.70;;;;;;;15.56;40.14;93831.50;4956686;28;20041;-85
2021/12/21 02:08:59;;;;;;;17.95;11.73;;;;;;;15.58;39.94;93829.78;4966852;28;20030;-85
2021/12/21 02:11:24;;;;;;;20.70;12.77;;;;;;;15.59;40.01;93831.25;4990922;28;20447;-85
2021/12/21 02:13:51;;;;;;;24.02;11.88;;;;;;;15.56;40.30;93834.22;4987468;28;20038;-85
2021/12/21 02:16:25;;;;;;;23.30;15.85;;;;;;;15.55;40.03;93830.72;4984734;28;20034;-85
2021/12/21 02:19:08;;;;;;;22.40;12.23;;;;;;;15.55;40.64;93832.69;4974752;28;20046;-85
2021/12/21 02:21:45;;;;;;;22.48;13.73;;;;;;;15.59;40.10;93825.81;4978155;28;20035;-86
2021/12/21 02:24:16;;;;;;;22.58;13.57;;;;;;;15.53;40.36;93816.06;4963811;28;20069;-85
2021/12/21 02:27:17;;;;;;;18.83;12.23;;;;;;;15.56;39.87;93817.88;5011302;28;20037;-92
2021/12/21 02:29:43;;;;;;;19.42;11.88;;;;;;;15.59;40.21;93816.91;4982343;28;20407;-85
2021/12/21 02:32:12;;;;;;;18.33;11.57;;;;;;;15.57;40.13;93816.66;4972883;28;20042;-85
2021/12/21 02:34:37;;;;;;;21.00;13.23;;;;;;;15.58;40.16;93818.13;4978015;28;20052;-85
2021/12/21 02:37:03;;;;;;;18.80;11.40;;;;;;;15.58;39.76;93821.59;4976076;28;20393;-84
2021/12/21 02:39:28;;;;;;;20.55;11.20;;;;;;;15.58;40.05;93812.69;4977111;28;20030;-85
2021/12/21 02:41:54;;;;;;;27.40;17.30;;;;;;;15.55;40.25;93810.91;4960593;28;20046;-86
2021/12/21 02:44:19;;;;;;;16.45;10.55;;;;;;;15.59;40.04;93806.72;4972760;28;20496;-85
2021/12/21 02:46:45;;;;;;;21.35;12.50;;;;;;;15.57;39.88;93816.66;4977257;28;20045;-85
2021/12/21 02:49:10;;;;;;;16.77;10.55;;;;;;;15.60;39.90;93804.75;4992310;28;20506;-85
2021/12/21 02:51:42;;;;;;;28.23;15.52;;;;;;;15.61;39.80;93806.25;4960606;28;20033;-85
2021/12/21 02:54:07;;;;;;;22.75;15.88;;;;;;;15.54;39.79;93807.41;4976421;28;20096;-85
2021/12/21 02:56:33;;;;;;;16.48;10.68;;;;;;;15.55;39.78;93806.19;4976332;28;20030;-85
2021/12/21 02:58:58;;;;;;;27.30;17.13;;;;;;;15.53;39.98;93811.38;4960578;28;20038;-90
2021/12/21 03:01:24;;;;;;;16.92;10.05;;;;;;;15.53;39.84;93811.38;4971085;28;20042;-89
2021/12/21 03:03:49;;;;;;;19.08;10.38;;;;;;;15.55;39.98;93805.44;4993207;28;20041;-85
2021/12/21 03:08:58;;;;;;;20.15;11.13;;;;;;;15.53;39.84;93811.38;4975749;28;20575;-85
2021/12/21 03:11:48;;;;;;;15.50;10.07;;;;;;;15.54;40.04;93806.66;4972467;28;20050;-86
2021/12/21 03:14:13;;;;;;;16.10;10.10;;;;;;;15.57;39.88;93809.22;4958998;28;20447;-85
2021/12/21 03:16:39;;;;;;;17.98;10.70;;;;;;;15.57;39.71;93811.94;4976105;28;20137;-85
2021/12/21 03:19:06;;;;;;;16.00;9.95;;;;;;;15.54;40.14;93809.41;4969321;28;20090;-85
2021/12/21 03:21:32;;;;;;;14.40;9.93;;;;;;;15.54;40.40;93809.41;4939161;28;20034;-85
2021/12/21 03:23:57;;;;;;;17.90;9.50;;;;;;;15.55;39.46;93802.72;4972523;28;20042;-85
2021/12/21 03:26:23;;;;;;;20.38;12.25;;;;;;;15.55;39.87;93806.19;4976048;28;20037;-94
2021/12/21 03:28:48;;;;;;;18.17;10.27;;;;;;;15.55;39.98;93817.09;4976331;28;20042;-85
2021/12/21 03:31:14;;;;;;;15.52;9.50;;;;;;;15.58;39.76;93808.00;4986669;28;20034;-85
2021/12/21 03:33:39;;;;;;;16.38;10.25;;;;;;;15.57;39.99;93814.66;4975417;28;20034;-86
2021/12/21 03:36:05;;;;;;;17.65;9.77;;;;;;;15.55;39.83;93808.91;4986801;28;20106;-87
2021/12/21 03:38:31;;;;;;;14.35;9.15;;;;;;;15.62;39.53;93807.75;4972767;28;20049;-85
2021/12/21 03:41:02;;;;;;;20.88;11.82;;;;;;;15.59;39.70;93806.72;4988955;28;20046;-85
2021/12/21 03:43:29;;;;;;;21.08;9.82;;;;;;;15.55;39.78;93808.91;4975195;28;20056;-85
2021/12/21 03:46:04;;;;;;;15.40;10.13;;;;;;;15.54;39.93;93803.94;4992035;28;20033;-90
2021/12/21 03:48:30;;;;;;;14.70;9.18;;;;;;;15.58;39.63;93802.53;4976809;28;20038;-85
2021/12/21 03:50:55;;;;;;;19.08;10.65;;;;;;;15.59;39.67;93806.00;4975277;28;20511;-87
2021/12/21 03:53:20;;;;;;;24.88;14.48;;;;;;;15.66;39.55;93811.00;4991233;28;20049;-92
2021/12/21 03:55:46;;;;;;;20.25;11.82;;;;;;;15.63;39.69;93803.78;4991542;28;20042;-85
2021/12/21 03:58:12;;;;;;;17.23;10.77;;;;;;;15.60;39.58;93804.75;4975191;28;20038;-85
2021/12/21 04:00:37;;;;;;;13.07;8.60;;;;;;;15.62;39.35;93808.50;4975681;28;20041;-85
2021/12/21 04:03:02;;;;;;;19.70;12.50;;;;;;;15.56;39.50;93804.25;5003783;28;20042;-86
2021/12/21 04:05:28;;;;;;;21.27;12.20;;;;;;;15.55;40.06;93800.00;4989634;28;20500;-86
2021/12/21 04:07:53;;;;;;;15.80;10.45;;;;;;;15.55;39.72;93806.19;4955036;28;20599;-85
2021/12/21 04:10:19;;;;;;;13.18;8.38;;;;;;;15.60;39.28;93802.78;4960765;28;20057;-87
2021/12/21 04:12:44;;;;;;;18.67;11.93;;;;;;;15.62;39.54;93802.28;4972123;28;20504;-85
2021/12/21 04:15:11;;;;;;;17.42;11.20;;;;;;;15.61;39.49;93798.06;4971637;28;20038;-85
2021/12/21 04:17:36;;;;;;;11.25;7.63;;;;;;;15.57;39.79;93806.50;4990788;28;20053;-86
2021/12/21 04:20:02;;;;;;;11.57;8.63;;;;;;;15.57;39.70;93806.50;4972828;28;20061;-86
2021/12/21 04:22:28;;;;;;;15.35;9.73;;;;;;;15.57;39.76;93805.75;4958609;28;20044;-85
2021/12/21 04:24:53;;;;;;;14.10;9.65;;;;;;;15.58;39.51;93805.25;4991265;28;20030;-85
2021/12/21 04:27:18;;;;;;;20.70;13.35;;;;;;;15.60;39.46;93804.75;4962006;28;20038;-87
2021/12/21 04:29:44;;;;;;;18.77;11.38;;;;;;;15.52;39.78;93798.97;4947024;28;20432;-86
2021/12/21 04:32:09;;;;;;;18.05;11.27;;;;;;;15.52;39.75;93800.97;4953355;28;20050;-85
2021/12/21 04:34:35;;;;;;;14.90;9.70;;;;;;;15.50;39.92;93808.88;4969785;28;20582;-85
2021/12/21 04:37:00;;;;;;;11.98;8.13;;;;;;;15.48;39.81;93797.69;4964302;28;20042;-86
2021/12/21 04:39:31;;;;;;;21.23;13.60;;;;;;;15.57;39.56;93803.75;4970023;28;20115;-85
2021/12/21 04:41:57;;;;;;;14.10;8.40;;;;;;;15.55;39.58;93806.19;4970575;28;20104;-86
2021/12/21 04:44:22;;;;;;;15.77;8.57;;;;;;;15.60;39.63;93807.47;4993006;28;20046;-92
2021/12/21 04:46:48;;;;;;;17.50;10.30;;;;;;;15.59;39.44;93801.28;4986786;28;20034;-86
2021/12/21 04:49:14;;;;;;;16.25;10.25;;;;;;;15.58;39.34;93797.09;4949551;28;20034;-85
2021/12/21 04:51:39;;;;;;;12.48;7.70;;;;;;;15.59;39.59;93809.44;4954098;28;20527;-85
2021/12/21 04:54:04;;;;;;;26.55;14.43;;;;;;;15.61;39.07;93807.00;4953828;28;20035;-86
2021/12/21 04:56:30;;;;;;;15.85;8.32;;;;;;;15.47;37.80;93804.38;4984131;28;20100;-85
2021/12/21 04:58:55;;;;;;;16.45;7.90;;;;;;;15.44;38.68;93800.63;4975123;28;20038;-87
2021/12/21 05:01:21;;;;;;;15.07;8.93;;;;;;;15.48;38.35;93801.16;4971148;28;20493;-85
2021/12/21 05:03:46;;;;;;;20.08;12.40;;;;;;;15.52;38.51;93798.97;4991081;28;20042;-89
2021/12/21 05:06:13;;;;;;;13.50;10.00;;;;;;;15.50;38.93;93797.97;4969384;28;20046;-87
2021/12/21 05:08:40;;;;;;;17.67;10.30;;;;;;;15.52;38.63;93793.53;4984923;28;20042;-86
2021/12/21 05:11:06;;;;;;;16.65;10.60;;;;;;;15.54;38.96;93795.78;4974543;28;20046;-86
2021/12/21 05:13:34;;;;;;;19.42;11.10;;;;;;;15.55;39.05;93800.00;4968492;28;20041;-85
2021/12/21 05:16:00;;;;;;;15.70;9.73;;;;;;;15.52;39.17;93795.50;4971073;28;20042;-87
2021/12/21 05:18:26;;;;;;;21.27;11.43;;;;;;;15.48;39.33;93793.00;4985980;28;20033;-86
2021/12/21 05:20:51;;;;;;;17.15;9.85;;;;;;;15.57;38.65;93792.13;4980317;28;20468;-87
2021/12/21 05:23:17;;;;;;;12.80;8.63;;;;;;;15.53;38.94;93786.09;4997434;28;20046;-87
2021/12/21 05:25:42;;;;;;;12.73;8.23;;;;;;;15.50;39.36;93793.25;4990035;28;20013;-89
2021/12/21 05:28:09;;;;;;;15.50;10.13;;;;;;;15.57;39.31;93789.38;4994162;28;20038;-86
2021/12/21 05:30:34;;;;;;;17.50;8.60;;;;;;;15.62;39.22;93792.13;5009040;28;20042;-85
2021/12/21 05:33:00;;;;;;;15.77;10.40;;;;;;;15.54;39.54;93795.78;4995633;28;20091;-91
2021/12/21 05:35:26;;;;;;;27.30;13.63;;;;;;;15.64;39.78;93800.59;4993124;28;20034;-86
2021/12/21 05:37:55;;;;;;;38.47;21.60;;;;;;;15.72;40.58;93787.28;4973837;28;20035;-86
2021/12/21 05:40:20;;;;;;;27.67;13.68;;;;;;;15.80;39.77;93795.78;4986765;28;20464;-87
2021/12/21 05:42:46;;;;;;;35.42;22.48;;;;;;;15.90;40.21;93803.28;4993519;28;20053;-88
2021/12/21 05:45:13;;;;;;;21.88;13.00;;;;;;;15.90;40.39;93806.00;4994312;28;20091;-88
2021/12/21 05:47:39;;;;;;;26.25;15.07;;;;;;;15.85;39.51;93792.31;5002218;28;20048;-88
2021/12/21 05:50:05;;;;;;;22.70;13.80;;;;;;;15.78;39.60;93796.25;4967976;28;20033;-86
2021/12/21 05:52:31;;;;;;;25.40;12.82;;;;;;;15.68;39.84;93797.66;4994937;28;20041;-87
2021/12/21 05:54:56;;;;;;;21.88;14.80;;;;;;;15.74;39.76;93793.00;4983969;28;20054;-86
2021/12/21 05:57:22;;;;;;;20.23;13.82;;;;;;;15.64;39.74;93789.69;4990912;28;20088;-84
2021/12/21 05:59:47;;;;;;;34.88;17.08;;;;;;;15.61;40.34;93798.06;5011162;28;20099;-85
2021/12/21 06:02:13;;;;;;;38.97;17.80;;;;;;;15.71;39.69;93786.53;5012141;28;20049;-87
2021/12/21 06:04:38;;;;;;;41.80;17.63;;;;;;;15.63;39.67;93801.06;4993090;28;20503;-85
2021/12/21 06:07:04;;;;;;;45.15;20.15;;;;;;;15.54;39.07;93790.31;4979555;28;20275;-86
2021/12/21 06:09:30;;;;;;;68.97;21.88;;;;;;;15.51;34.96;93791.28;4998663;28;20057;-88
2021/12/21 06:14:50;;;;;;;163.18;59.15;;;;;;;15.37;35.88;93795.63;5006789;28;20070;-85
2021/12/21 06:25:35;;;;;;;137.88;57.92;;;;;;;15.54;37.59;93798.50;4997495;28;20048;-85
2021/12/21 06:28:03;;;;;;;219.38;84.90;;;;;;;15.43;37.14;93793.69;5003523;28;20725;-86
2021/12/21 06:30:28;;;;;;;279.73;111.32;;;;;;;15.48;36.75;93800.41;4992652;28;20045;-87
2021/12/21 06:32:54;;;;;;;277.92;119.43;;;;;;;15.48;36.63;93803.16;4969700;28;20129;-87
2021/12/21 06:35:20;;;;;;;259.20;108.80;;;;;;;15.51;36.64;93807.63;4982936;28;20443;-86
2021/12/21 06:37:45;;;;;;;360.55;165.35;;;;;;;15.45;36.60;93807.56;4987891;28;20126;-89
2021/12/21 06:40:11;;;;;;;342.67;154.13;;;;;;;15.44;37.08;93816.97;4974590;28;20131;-90
2021/12/21 06:42:36;;;;;;;355.70;169.75;;;;;;;15.41;35.99;93815.22;4974652;28;20119;-86
2021/12/21 06:45:10;;;;;;;324.25;150.15;;;;;;;15.35;35.94;93820.63;4960322;28;20089;-88
2021/12/21 06:53:06;;;;;;;323.23;154.02;;;;;;;15.49;36.53;93815.53;4944084;28;20046;-88
2021/12/21 06:55:31;;;;;;;300.42;146.70;;;;;;;15.46;36.90;93814.53;4925854;28;20035;-83
2021/12/21 06:57:57;;;;;;;346.00;164.60;;;;;;;15.51;37.31;93819.28;4958180;28;20051;-84
2021/12/21 07:00:22;;;;;;;308.00;147.27;;;;;;;15.60;36.99;93821.84;4933962;28;20055;-89
2021/12/21 07:02:49;;;;;;;435.50;288.75;;;;;;;15.59;37.48;93819.63;4914831;28;20086;-87
2021/12/21 07:05:15;;;;;;;366.25;210.30;;;;;;;15.57;37.20;93816.66;4919293;28;20552;-86
2021/12/21 07:07:40;;;;;;;306.10;154.48;;;;;;;15.56;37.39;93813.16;4941603;28;20038;-87
2021/12/21 07:10:09;;;;;;;276.63;135.68;;;;;;;15.64;37.42;93810.75;4947490;28;20050;-85
2021/12/21 07:18:14;;;;;;;251.55;122.05;;;;;;;15.61;37.53;93817.91;4960155;28;20097;-87
2021/12/21 07:20:39;;;;;;;233.95;111.07;;;;;;;15.53;36.21;93818.81;4953411;28;20121;-87
2021/12/21 07:23:06;;;;;;;222.15;103.97;;;;;;;15.54;36.08;93818.31;4953019;28;20493;-88
2021/12/21 07:25:31;;;;;;;219.63;105.57;;;;;;;15.53;36.07;93814.09;4961049;28;20052;-88
2021/12/21 07:27:56;;;;;;;228.07;109.32;;;;;;;15.54;36.36;93814.84;4968501;28;20054;-85
2021/12/21 07:30:22;;;;;;;204.27;102.07;;;;;;;15.56;36.72;93815.16;4971021;28;20050;-88
2021/12/21 07:32:47;;;;;;;237.30;105.22;;;;;;;15.64;36.80;93822.38;5007555;28;20041;-85
2021/12/21 07:35:13;;;;;;;213.75;98.22;;;;;;;15.64;36.42;93821.63;5009403;28;20048;-85
2021/12/21 07:37:38;;;;;;;237.38;105.80;;;;;;;15.62;36.21;93813.19;5002094;28;20041;-83
2021/12/21 07:40:04;;;;;;;253.18;111.18;;;;;;;15.55;36.89;93808.91;4986010;28;20052;-90
2021/12/21 07:42:30;;;;;;;227.15;103.75;;;;;;;15.62;36.72;93816.66;4988027;28;20212;-87
2021/12/21 07:44:55;;;;;;;228.18;100.70;;;;;;;15.67;37.10;93813.25;4994799;28;20045;-88
2021/12/21 07:47:22;;;;;;;196.93;89.07;;;;;;;15.66;37.93;93814.47;4975892;28;20066;-90
2021/12/21 07:49:47;;;;;;;199.73;93.40;;;;;;;15.66;37.26;93811.00;4950322;28;20050;-86
2021/12/21 07:52:13;;;;;;;210.68;99.15;;;;;;;15.68;37.18;93812.03;4954833;28;20118;-84
2021/12/21 07:54:39;;;;;;;219.27;100.18;;;;;;;15.64;37.37;93822.38;4948520;28;20638;-85
2021/12/21 07:57:06;;;;;;;402.15;112.22;;;;;;;15.67;37.22;93821.44;4955853;28;20038;-85
2021/12/21 07:59:32;;;;;;;359.50;112.50;;;;;;;15.63;37.13;93822.88;4936861;28;20038;-88
2021/12/21 08:01:58;;;;;;;246.07;104.18;;;;;;;15.74;37.01;93818.28;4968329;28;20115;-91
2021/12/21 08:04:27;;;;;;;276.50;112.28;;;;;;;15.70;37.22;93831.38;4937905;28;20132;-90
2021/12/21 08:06:55;;;;;;;252.48;102.70;;;;;;;15.75;37.12;93827.19;4962558;28;20061;-91
2021/12/21 08:09:20;;;;;;;250.43;99.20;;;;;;;15.72;37.14;93830.88;4941704;28;20085;-87
2021/12/21 08:14:30;;;;;;;211.32;94.47;;;;;;;15.77;37.27;93830.94;4958575;28;20684;-85
2021/12/21 08:16:55;;;;;;;215.60;94.80;;;;;;;15.74;37.25;93834.63;4970899;28;20050;-87
2021/12/21 08:19:20;;;;;;;220.13;91.25;;;;;;;15.71;37.33;93823.94;4980619;28;20030;-85
2021/12/21 08:21:46;;;;;;;230.18;90.30;;;;;;;15.84;37.45;93837.91;4988960;28;20046;-90
2021/12/21 08:24:11;;;;;;;213.65;87.85;;;;;;;15.72;37.24;93833.63;4985220;28;20038;-85
2021/12/21 08:26:37;;;;;;;223.82;88.25;;;;;;;15.74;37.27;93840.06;4984411;28;20384;-88
2021/12/21 08:29:02;;;;;;;231.23;87.82;;;;;;;15.72;37.49;93839.06;4987862;28;20096;-87
2021/12/21 08:31:28;;;;;;;314.02;94.22;;;;;;;15.74;37.43;93839.31;4985396;28;20053;-92
2021/12/21 08:33:54;;;;;;;252.50;87.47;;;;;;;15.71;37.43;93840.28;4995208;28;20053;-88
2021/12/21 08:36:19;;;;;;;257.90;87.20;;;;;;;15.74;37.50;93842.81;4976028;28;20038;-85
2021/12/21 08:38:45;;;;;;;199.90;82.53;;;;;;;15.76;37.27;93840.34;5010604;28;20046;-86
2021/12/21 08:41:10;;;;;;;216.73;85.70;;;;;;;15.82;37.45;93837.66;4991981;28;20080;-85
2021/12/21 08:43:36;;;;;;;266.13;105.15;;;;;;;15.81;37.39;93835.41;4994173;28;20447;-84
2021/12/21 08:46:02;;;;;;;183.60;85.10;;;;;;;15.83;37.32;93836.41;4989801;28;20053;-86
2021/12/21 08:48:27;;;;;;;207.88;88.72;;;;;;;15.79;37.55;93837.88;4974042;28;20447;-88
2021/12/21 08:50:54;;;;;;;215.18;91.05;;;;;;;15.83;37.45;93843.84;4989760;28;20096;-86
2021/12/21 08:53:23;;;;;;;226.60;95.22;;;;;;;15.81;37.19;93843.56;4993875;28;20038;-86
2021/12/21 08:55:49;;;;;;;214.55;96.43;;;;;;;15.88;37.53;93843.91;5001606;28;20045;-85
2021/12/21 08:58:15;;;;;;;210.82;92.10;;;;;;;15.84;37.75;93839.88;4998086;28;20119;-88
2021/12/21 09:00:40;;;;;;;200.82;89.18;;;;;;;15.85;37.69;93844.84;4989465;28;20041;-87
2021/12/21 09:03:06;;;;;;;189.45;87.30;;;;;;;15.84;37.31;93839.88;4992865;28;20030;-85
2021/12/21 09:05:32;;;;;;;194.45;83.60;;;;;;;15.99;37.21;93832.34;4991636;28;20685;-85
2021/12/21 09:07:57;;;;;;;190.48;87.03;;;;;;;15.92;37.35;93838.22;4979224;28;20050;-89
2021/12/21 09:10:23;;;;;;;187.18;84.20;;;;;;;15.86;37.42;93827.28;4985816;28;20038;-87
2021/12/21 09:12:49;;;;;;;179.65;80.75;;;;;;;15.96;37.65;93834.06;4993009;28;20044;-87
2021/12/21 09:15:14;;;;;;;185.32;78.78;;;;;;;15.99;37.58;93837.78;4977143;28;20041;-87
2021/12/21 09:17:41;;;;;;;190.07;79.45;;;;;;;16.00;37.14;93836.56;4990082;28;20073;-88
2021/12/21 09:20:08;;;;;;;180.07;75.93;;;;;;;15.95;37.23;93834.53;4997259;28;20037;-88
2021/12/21 09:22:33;;;;;;;213.85;85.10;;;;;;;15.93;37.44;93828.81;4981496;28;20045;-87
2021/12/21 09:24:59;;;;;;;192.30;85.80;;;;;;;15.89;37.74;93836.47;4998790;28;20045;-87
2021/12/21 09:27:25;;;;;;;192.07;86.80;;;;;;;15.90;37.59;93832.50;4997506;28;20034;-89
2021/12/21 09:29:50;;;;;;;257.95;116.40;;;;;;;15.90;37.54;93840.69;4981553;28;20038;-87
2021/12/21 09:32:18;;;;;;;256.00;122.88;;;;;;;15.96;37.59;93828.59;4993235;28;20046;-88
2021/12/21 09:34:44;;;;;;;271.95;132.13;;;;;;;15.93;37.33;93837.00;5007689;28;20037;-88
2021/12/21 09:37:19;;;;;;;263.15;128.48;;;;;;;15.96;37.10;93834.06;4978400;28;20041;-89
2021/12/21 09:39:50;;;;;;;264.98;129.65;;;;;;;16.00;37.17;93834.59;4978075;28;20125;-87
2021/12/21 09:42:17;;;;;;;313.95;143.23;;;;;;;16.00;37.60;93828.38;5009701;28;20038;-86
2021/12/21 09:44:43;;;;;;;307.08;148.05;;;;;;;16.04;37.68;93837.81;4993112;28;20504;-86
2021/12/21 09:47:10;;;;;;;287.13;141.98;;;;;;;16.08;37.71;93827.44;4992384;28;20168;-85
2021/12/21 09:49:36;;;;;;;331.80;166.98;;;;;;;16.10;37.48;93829.69;4969821;28;20152;-85
2021/12/21 09:52:03;;;;;;;335.00;173.85;;;;;;;16.14;37.46;93821.28;4982410;28;20046;-89
2021/12/21 09:54:28;;;;;;;291.75;154.52;;;;;;;16.14;38.18;93821.28;4975273;28;20125;-85
2021/12/21 09:56:54;;;;;;;314.15;163.35;;;;;;;16.17;37.38;93821.06;4982182;28;20049;-88
2021/12/21 09:59:19;;;;;;;394.60;202.73;;;;;;;16.06;37.35;93813.53;4991585;28;20038;-87
2021/12/21 10:01:45;;;;;;;339.20;182.18;;;;;;;16.09;37.70;93822.72;4999716;28;20052;-87
2021/12/21 10:04:10;;;;;;;349.75;189.50;;;;;;;16.00;37.70;93812.78;5006425;28;20116;-89
2021/12/21 10:06:47;;;;;;;278.75;149.65;;;;;;;16.02;37.93;93813.00;5039242;23;20136;-90
2021/12/21 10:09:14;;;;;;;327.85;177.88;;;;;;;16.04;37.41;93816.00;5031063;28;20098;-93
2021/12/21 10:11:47;;;;;;;329.67;177.15;;;;;;;16.01;37.82;93810.78;5038868;28;20047;-91
2021/12/21 10:14:14;;;;;;;346.20;185.68;;;;;;;16.01;37.83;93805.34;5065781;28;20037;-90
2021/12/21 10:16:39;;;;;;;314.08;168.27;;;;;;;15.99;37.75;93799.63;5039108;28;20044;-90
2021/12/21 10:19:10;;;;;;;309.45;161.85;;;;;;;16.03;37.75;93800.88;5054090;28;20055;-89
2021/12/21 10:21:45;;;;;;;349.25;177.63;;;;;;;16.00;37.74;93796.41;5093154;22;20040;-90
2021/12/21 10:24:21;;;;;;;285.48;148.57;;;;;;;16.04;37.65;93794.19;5067836;28;20041;-90
2021/12/21 10:26:47;;;;;;;267.48;141.02;;;;;;;16.06;37.65;93796.44;5061393;28;20036;-87
2021/12/21 10:29:29;;;;;;;256.80;131.80;;;;;;;16.02;37.97;93790.47;5053325;28;20041;-88
2021/12/21 10:32:21;;;;;;;329.95;169.77;;;;;;;16.01;37.69;93794.44;5011465;28;20045;-88
2021/12/21 10:35:03;;;;;;;300.35;155.95;;;;;;;16.06;37.51;93793.69;5009337;28;20046;-87
2021/12/21 10:37:34;;;;;;;334.30;164.50;;;;;;;16.02;37.83;93785.75;5011883;28;20065;-88
2021/12/21 10:40:10;;;;;;;299.52;152.18;;;;;;;16.02;37.70;93788.47;5021536;28;20034;-88
2021/12/21 10:42:45;;;;;;;355.25;165.98;;;;;;;16.03;37.80;93772.84;4971680;28;20242;-88
2021/12/21 10:45:12;;;;;;;322.85;157.27;;;;;;;16.02;37.81;93783.00;4998292;28;20050;-90
2021/12/21 10:47:37;;;;;;;419.08;173.18;;;;;;;16.03;37.94;93775.59;4984287;28;20030;-89
2021/12/21 10:50:06;;;;;;;339.55;155.95;;;;;;;16.02;37.90;93774.13;4964939;28;20041;-87
2021/12/21 10:52:32;;;;;;;354.35;169.52;;;;;;;16.04;37.85;93766.16;5007947;28;20048;-88
2021/12/21 10:54:57;;;;;;;299.95;141.13;;;;;;;16.15;37.63;93768.22;4991548;28;20061;-87
2021/12/21 10:57:29;;;;;;;348.40;143.43;;;;;;;16.07;37.80;93765.19;4960578;28;20034;-89
2021/12/21 10:59:56;;;;;;;331.08;153.75;;;;;;;16.01;37.92;93762.47;4959411;28;20057;-90
2021/12/21 11:02:32;;;;;;;331.58;148.90;;;;;;;16.09;38.02;93757.28;4986599;28;20457;-91
2021/12/21 11:05:15;;;;;;;328.25;149.30;;;;;;;16.14;37.90;93753.84;5019978;28;20123;-92
2021/12/21 11:07:46;;;;;;;325.08;145.52;;;;;;;16.17;38.10;93743.94;5023719;28;20127;-86
2021/12/21 11:10:24;;;;;;;304.67;133.65;;;;;;;16.34;39.29;93745.53;5048143;28;20044;-88
2021/12/21 11:13:01;;;;;;;290.13;127.53;;;;;;;16.37;37.83;93732.88;5058542;28;20048;-89
2021/12/21 11:15:30;;;;;;;282.42;128.13;;;;;;;16.38;37.64;93726.94;5039431;28;20144;-94
2021/12/21 11:17:56;;;;;;;271.13;129.05;;;;;;;16.40;38.03;93727.19;5040385;28;20106;-92
2021/12/21 11:20:22;;;;;;;283.70;133.27;;;;;;;16.34;37.64;93718.22;5037770;28;22956;-90
2021/12/21 11:22:47;;;;;;;282.63;130.65;;;;;;;16.36;37.57;93721.22;5000696;28;20104;-88
2021/12/21 11:25:16;;;;;;;243.35;116.68;;;;;;;16.40;38.21;93710.81;5049046;28;20045;-92
2021/12/21 11:27:42;;;;;;;238.25;115.15;;;;;;;16.47;37.71;93717.78;5024247;28;20042;-90
2021/12/21 11:30:12;;;;;;;235.40;126.50;;;;;;;16.44;37.47;93708.63;4998799;28;20044;-90
2021/12/21 11:32:43;;;;;;;236.68;116.10;;;;;;;16.46;37.40;93703.38;5012957;28;20044;-87
2021/12/21 11:37:20;;;;;;;221.68;108.85;;;;;;;16.43;37.77;93709.84;5030853;28;20048;-89
2021/12/21 11:37:55;;;;;;;213.02;106.82;;;;;;;16.32;37.35;93709.78;5036327;28;20148;-87
2021/12/21 11:40:23;;;;;;;223.30;104.13;;;;;;;16.39;37.77;93711.31;5013063;28;20048;-90
2021/12/21 11:42:51;;;;;;;210.93;106.80;;;;;;;16.43;37.74;93707.13;5012786;28;20546;-90
2021/12/21 11:45:27;;;;;;;209.57;102.78;;;;;;;16.41;37.38;93712.31;5052153;28;20041;-86
2021/12/21 11:48:11;;;;;;;194.75;96.78;;;;;;;16.35;37.58;93705.34;5012716;28;20080;-86
2021/12/21 11:50:41;;;;;;;194.43;95.45;;;;;;;16.31;37.69;93702.84;5012357;28;20408;-85
2021/12/21 11:53:08;;;;;;;181.50;76.10;;;;;;;16.25;35.69;93709.50;5014404;28;20048;-86
2021/12/21 11:55:36;;;;;;;179.40;72.95;;;;;;;16.13;35.71;93707.97;5013764;28;20555;-87
2021/12/21 11:58:21;;;;;;;168.77;76.10;;;;;;;16.11;35.44;93708.44;5012728;28;20048;-87
2021/12/21 12:00:55;;;;;;;174.23;73.13;;;;;;;16.16;36.05;93709.72;5048534;28;20041;-86
2021/12/21 12:03:22;;;;;;;427.67;96.10;;;;;;;16.13;36.25;93718.88;5023084;28;20508;-85
2021/12/21 12:05:52;;;;;;;646.03;129.45;;;;;;;16.08;36.31;93703.97;5018977;28;20530;-86
2021/12/21 12:08:17;;;;;;;664.17;135.63;;;;;;;16.08;36.84;93709.44;5033310;28;20041;-87